Main page
METAR-TAF:

Airports :

Bauru, São Paulo, Brazil

Bauru Airport

latitude: 22-19S, longitude: 049-04W, elevation: 590 m

Current weather observation

The report was made 2 hours and 47 minutes ago, at 14:00 UTC
Wind 9 kt from the Northeast
Temperature 22°C
Humidity 65%
Pressure 1024 hPa
Visibility 10 km or more
no clouds below 1500 m and no cumulonimbus

METAR: SBBU 251400Z 04009KT CAVOK 22/15 Q1024

Time: 13:47 (16:47 UTC)

Forecast

The report was made 5 hours and 57 minutes ago, at 10:50 UTC
Forecast valid from 25 at 12 UTC to 25 at 24 UTC
Wind 10 kt from the East
Visibility 10 km or more
no clouds below 1500 m and no cumulonimbus

TAF: SBBU 251050Z 2512/2524 10010KT CAVOK TX24/2517Z TN16/2524Z RMK PDV

METAR-TAF

Weather observations and forecasts of more than 4000 airports (METAR and TAF reports).

The available stations are represented by yellow and red dots on the map.

Hover mouse over dot to see the name of the station.

Then click to see weather observations and forecasts.

To change the map : click on the green buttons with a black cross to zoom in, on the green button with a dash to zoom out, or on the green arrows for adjacent maps.


METAR-TAF: